Time;durP1;ratioP1;P1;durP2;ratioP2;P2;SDS_P1;SDS_P2;PMS_P1;PMS_P2;Temp;Humidity;BMP_temperature;BMP_pressure;BME280_temperature;BME280_humidity;BME280_pressure;Samples;Min_cycle;Max_cycle;Signal;HPM_P1;HPM_P2
2023/01/12 00:01:24;;;;;;;20.65;3.05;;;8.20;99.90;;;;;;5092213;28;20784;-63
2023/01/12 00:03:51;;;;;;;24.48;4.68;;;8.20;99.90;;;;;;5102888;28;20039;-62
2023/01/12 00:06:18;;;;;;;17.25;3.10;;;8.20;99.90;;;;;;5102343;28;20109;-62
2023/01/12 00:08:44;;;;;;;12.80;2.40;;;8.20;99.90;;;;;;5064979;28;20109;-62
2023/01/12 00:11:10;;;;;;;14.25;3.03;;;8.20;99.90;;;;;;5083045;28;20082;-63
2023/01/12 00:13:36;;;;;;;14.82;3.10;;;8.20;99.90;;;;;;5083975;28;20063;-63
2023/01/12 00:18:47;;;;;;;18.38;3.03;;;8.10;99.90;;;;;;5084031;28;20040;-63
2023/01/12 00:21:13;;;;;;;23.88;3.35;;;8.10;99.90;;;;;;5083628;28;20502;-64
2023/01/12 00:23:38;;;;;;;21.02;4.22;;;8.10;99.90;;;;;;5081877;28;20052;-63
2023/01/12 00:26:07;;;;;;;23.88;3.92;;;8.10;99.90;;;;;;5084213;28;20062;-60
2023/01/12 00:28:37;;;;;;;26.05;4.55;;;8.10;99.90;;;;;;5099930;27;20035;-62
2023/01/12 00:31:07;;;;;;;22.92;4.03;;;8.20;99.90;;;;;;5095704;28;20043;-62
2023/01/12 00:33:34;;;;;;;32.28;5.63;;;8.30;99.90;;;;;;5102460;28;20052;-62
2023/01/12 00:36:06;;;;;;;29.00;5.07;;;8.30;99.90;;;;;;5103773;28;20047;-63
2023/01/12 00:38:34;;;;;;;24.23;4.93;;;8.30;99.90;;;;;;5089792;28;20040;-62
2023/01/12 00:41:05;;;;;;;23.80;3.88;;;8.20;99.90;;;;;;5082822;28;20172;-63
2023/01/12 00:46:14;;;;;;;23.17;3.88;;;8.20;99.90;;;;;;5092258;28;20074;-62
2023/01/12 00:48:40;;;;;;;18.58;3.78;;;8.20;99.90;;;;;;5082390;28;20121;-62
2023/01/12 00:51:05;;;;;;;22.48;4.00;;;8.20;99.90;;;;;;5083219;28;20039;-64
2023/01/12 00:53:31;;;;;;;30.30;4.55;;;8.10;99.90;;;;;;5082635;28;20471;-61
2023/01/12 00:56:04;;;;;;;19.00;3.40;;;8.10;99.90;;;;;;5084239;28;20036;-62
2023/01/12 00:58:29;;;;;;;25.52;4.38;;;8.10;99.90;;;;;;5084254;28;20032;-64
2023/01/12 01:01:06;;;;;;;18.77;3.33;;;8.10;99.90;;;;;;5093188;28;20182;-62
2023/01/12 01:03:33;;;;;;;19.65;3.83;;;8.10;99.90;;;;;;5103865;28;20043;-64
2023/01/12 01:06:03;;;;;;;25.25;3.67;;;8.20;99.90;;;;;;5101975;28;20039;-63
2023/01/12 01:08:29;;;;;;;17.40;3.05;;;8.20;99.90;;;;;;5102003;28;20134;-58
2023/01/12 01:11:02;;;;;;;21.73;4.05;;;8.10;99.90;;;;;;5098984;28;20047;-62
2023/01/12 01:13:28;;;;;;;18.73;3.15;;;8.00;99.90;;;;;;5082105;28;20044;-62
2023/01/12 01:15:53;;;;;;;19.30;3.75;;;7.90;99.90;;;;;;5080721;28;20391;-62
2023/01/12 01:18:19;;;;;;;22.77;3.80;;;7.80;99.90;;;;;;5083402;28;20039;-64
2023/01/12 01:20:46;;;;;;;18.27;3.20;;;7.70;99.90;;;;;;5081843;28;20509;-61
2023/01/12 01:23:12;;;;;;;19.17;3.67;;;7.70;99.90;;;;;;5081030;28;20072;-62
2023/01/12 01:25:37;;;;;;;26.05;4.57;;;7.70;99.90;;;;;;5090269;28;20067;-64
2023/01/12 01:28:03;;;;;;;28.10;4.45;;;7.70;99.90;;;;;;5102254;28;20048;-63
2023/01/12 01:30:28;;;;;;;21.58;3.78;;;7.80;99.90;;;;;;5094493;28;20525;-61
2023/01/12 01:32:54;;;;;;;26.02;4.45;;;7.90;99.90;;;;;;5106600;28;20116;-63
2023/01/12 01:35:19;;;;;;;30.42;4.38;;;7.80;99.90;;;;;;5105750;28;20047;-63
2023/01/12 01:37:45;;;;;;;25.58;4.50;;;7.80;99.90;;;;;;5106486;28;20039;-63
2023/01/12 01:40:11;;;;;;;24.58;4.30;;;7.80;99.90;;;;;;5091440;28;20044;-62
2023/01/12 01:42:38;;;;;;;27.60;4.88;;;7.90;99.90;;;;;;5102465;28;20048;-63
2023/01/12 01:45:06;;;;;;;19.98;3.92;;;7.90;99.90;;;;;;5090898;28;20047;-63
2023/01/12 01:47:41;;;;;;;29.50;5.68;;;7.90;99.90;;;;;;5089366;28;20525;-64
2023/01/12 01:50:38;;;;;;;35.00;4.70;;;7.90;99.90;;;;;;5085453;28;20495;-61
2023/01/12 01:53:09;;;;;;;26.10;3.40;;;8.00;99.90;;;;;;5101687;28;20514;-64
2023/01/12 01:55:47;;;;;;;24.35;3.75;;;8.00;99.90;;;;;;5107373;28;20035;-63
2023/01/12 01:58:25;;;;;;;27.48;4.85;;;8.00;99.90;;;;;;5089977;28;20084;-61
2023/01/12 02:00:51;;;;;;;31.00;5.10;;;8.10;99.90;;;;;;5093588;28;20059;-66
2023/01/12 02:03:18;;;;;;;19.83;3.75;;;8.10;99.90;;;;;;5068475;28;20056;-63
2023/01/12 02:05:47;;;;;;;22.08;3.58;;;8.10;99.90;;;;;;5104691;28;20051;-65
2023/01/12 02:08:20;;;;;;;18.38;3.40;;;8.10;99.90;;;;;;5104284;28;20075;-62
2023/01/12 02:10:46;;;;;;;24.95;4.38;;;8.00;99.90;;;;;;5090073;28;20537;-62
2023/01/12 02:16:20;;;;;;;29.90;5.10;;;8.00;99.90;;;;;;5100104;28;20040;-63
2023/01/12 02:18:45;;;;;;;29.85;3.92;;;7.90;99.90;;;;;;5086620;28;20036;-63
2023/01/12 02:21:25;;;;;;;24.80;4.18;;;7.90;99.90;;;;;;5067231;28;20075;-65
2023/01/12 02:24:31;;;;;;;28.45;4.50;;;7.90;99.90;;;;;;5084023;28;20078;-63
2023/01/12 02:27:19;;;;;;;33.00;4.57;;;8.00;99.90;;;;;;5101526;28;20057;-63
2023/01/12 02:30:09;;;;;;;25.25;3.90;;;8.10;99.90;;;;;;5104354;28;20043;-64
2023/01/12 02:33:03;;;;;;;32.03;4.68;;;8.10;99.90;;;;;;5084157;28;20548;-65
2023/01/12 02:35:32;;;;;;;27.77;4.53;;;8.20;99.90;;;;;;5104648;28;20044;-63
2023/01/12 02:38:11;;;;;;;28.20;4.97;;;8.20;99.90;;;;;;5105276;28;20078;-61
2023/01/12 02:40:53;;;;;;;30.80;5.18;;;8.20;99.90;;;;;;5104433;28;20452;-62
2023/01/12 02:43:33;;;;;;;30.02;4.45;;;8.20;99.90;;;;;;5085677;28;20051;-61
2023/01/12 02:46:05;;;;;;;35.22;5.55;;;8.20;99.90;;;;;;5076790;28;20414;-60
2023/01/12 02:48:35;;;;;;;37.53;4.60;;;8.20;99.90;;;;;;5086074;28;20048;-66
2023/01/12 02:51:19;;;;;;;25.83;4.53;;;8.10;99.90;;;;;;5084395;28;20036;-63
2023/01/12 02:53:50;;;;;;;24.27;4.03;;;8.10;99.90;;;;;;5083640;28;20516;-62
2023/01/12 02:56:29;;;;;;;30.13;4.45;;;8.10;99.90;;;;;;5091559;28;20039;-62
2023/01/12 02:58:58;;;;;;;30.25;5.50;;;8.10;99.90;;;;;;5104904;28;20752;-63
2023/01/12 03:01:25;;;;;;;24.58;4.50;;;8.10;99.90;;;;;;5089678;28;20048;-62
2023/01/12 03:03:54;;;;;;;34.53;5.40;;;8.10;99.90;;;;;;5100986;28;20050;-62
2023/01/12 03:06:20;;;;;;;33.15;4.68;;;8.10;99.90;;;;;;5085041;28;20117;-62
2023/01/12 03:08:47;;;;;;;30.92;5.82;;;8.00;99.90;;;;;;5084766;28;20125;-62
2023/01/12 03:11:21;;;;;;;32.90;4.93;;;8.00;99.90;;;;;;5085525;28;20533;-63
2023/01/12 03:13:54;;;;;;;24.67;5.90;;;8.00;99.90;;;;;;5067415;28;20429;-63
2023/01/12 03:16:30;;;;;;;34.40;5.70;;;8.10;99.90;;;;;;5092347;28;20036;-62
2023/01/12 03:19:09;;;;;;;39.55;5.55;;;8.10;99.90;;;;;;5067006;28;20091;-63
2023/01/12 03:21:54;;;;;;;31.65;5.13;;;8.10;99.90;;;;;;5082635;28;20539;-63
2023/01/12 03:24:25;;;;;;;33.83;5.82;;;8.10;99.90;;;;;;5089356;28;20036;-60
2023/01/12 03:26:59;;;;;;;35.70;5.97;;;8.10;99.90;;;;;;5105381;27;20516;-63
2023/01/12 03:29:28;;;;;;;;;;;8.10;99.90;;;;;;5102606;28;20100;-62
2023/01/12 03:31:55;;;;;;;31.73;5.97;;;8.10;99.90;;;;;;5091811;28;19927;-61
2023/01/12 03:34:21;;;;;;;29.45;4.82;;;8.10;99.90;;;;;;5066822;28;20043;-61
2023/01/12 03:36:58;;;;;;;32.75;4.80;;;8.20;99.90;;;;;;5082815;28;20044;-61
2023/01/12 03:39:27;;;;;;;28.42;5.47;;;8.20;99.90;;;;;;5101686;28;20083;-60
2023/01/12 03:41:58;;;;;;;31.45;5.40;;;8.20;99.90;;;;;;5104531;28;20123;-61
2023/01/12 03:45:03;;;;;;;21.60;4.60;;;8.20;99.90;;;;;;5104750;27;20066;-61
2023/01/12 03:47:31;;;;;;;23.23;4.03;;;8.20;99.90;;;;;;5097855;28;20105;-62
2023/01/12 03:50:14;;;;;;;31.10;5.28;;;8.20;99.90;;;;;;5104302;28;20127;-63
2023/01/12 03:52:42;;;;;;;25.13;4.53;;;8.30;99.90;;;;;;5087344;28;20047;-64
2023/01/12 03:55:11;;;;;;;28.58;5.07;;;8.40;99.90;;;;;;5084956;28;20513;-64
2023/01/12 03:57:38;;;;;;;23.65;4.97;;;8.40;99.90;;;;;;5103654;28;20050;-64
2023/01/12 04:00:08;;;;;;;23.40;4.55;;;8.40;99.90;;;;;;5082859;28;20542;-63
2023/01/12 04:02:34;;;;;;;21.35;3.92;;;8.40;99.90;;;;;;5099820;28;20054;-63
2023/01/12 04:04:59;;;;;;;18.70;4.05;;;8.50;99.90;;;;;;5104320;28;20036;-64
2023/01/12 04:07:25;;;;;;;18.75;4.25;;;8.50;99.90;;;;;;5103715;28;20556;-62
2023/01/12 04:09:51;;;;;;;20.52;4.32;;;8.40;99.90;;;;;;5100763;28;20040;-63
2023/01/12 04:12:17;;;;;;;19.83;3.75;;;8.40;99.90;;;;;;5083990;28;20043;-63
2023/01/12 04:14:44;;;;;;;19.60;4.75;;;8.40;99.90;;;;;;5092778;28;20115;-61
2023/01/12 04:17:14;;;;;;;22.25;4.20;;;8.40;99.90;;;;;;5095394;28;20120;-63
2023/01/12 04:19:40;;;;;;;22.65;4.25;;;8.40;99.90;;;;;;5104740;28;20043;-62
2023/01/12 04:24:51;;;;;;;19.42;3.78;;;8.40;99.90;;;;;;5104143;28;20043;-64
2023/01/12 04:27:17;;;;;;;22.60;4.75;;;8.40;99.90;;;;;;5068815;28;20330;-62
2023/01/12 04:29:43;;;;;;;13.93;3.35;;;8.40;99.90;;;;;;5084587;28;20039;-63
2023/01/12 04:32:09;;;;;;;16.20;3.80;;;8.40;99.90;;;;;;5089645;28;20052;-62
2023/01/12 04:34:35;;;;;;;16.30;2.88;;;8.40;99.90;;;;;;5065856;28;20040;-64
2023/01/12 04:37:01;;;;;;;16.00;2.97;;;8.40;99.90;;;;;;5082065;28;20518;-63
2023/01/12 04:39:28;;;;;;;13.82;3.17;;;8.40;99.90;;;;;;5083165;28;20502;-62
2023/01/12 04:41:54;;;;;;;14.38;3.28;;;8.50;99.90;;;;;;5083960;28;20549;-60
2023/01/12 04:44:19;;;;;;;16.73;3.95;;;8.40;99.90;;;;;;5084124;28;20044;-60
2023/01/12 04:46:47;;;;;;;15.95;2.90;;;8.40;99.90;;;;;;5100028;28;20039;-61
2023/01/12 04:49:13;;;;;;;11.20;2.83;;;8.40;99.90;;;;;;5085792;28;20516;-64
2023/01/12 04:51:38;;;;;;;15.05;3.00;;;8.40;99.90;;;;;;5090449;28;20036;-61
2023/01/12 04:54:04;;;;;;;16.52;3.13;;;8.40;99.90;;;;;;5081478;28;20032;-62
2023/01/12 04:56:30;;;;;;;11.93;3.28;;;8.40;99.90;;;;;;5082736;28;20055;-62
2023/01/12 04:58:59;;;;;;;14.25;3.28;;;8.40;99.90;;;;;;5065857;28;20081;-61
2023/01/12 05:01:26;;;;;;;13.88;2.67;;;8.40;99.90;;;;;;5092527;28;20036;-61
2023/01/12 05:03:54;;;;;;;15.80;2.72;;;8.30;99.90;;;;;;5083893;28;20044;-60
2023/01/12 05:06:21;;;;;;;9.75;2.25;;;8.30;99.90;;;;;;5091201;28;20097;-63
2023/01/12 05:11:30;;;;;;;8.68;2.50;;;8.30;99.90;;;;;;5107725;28;20094;-63
2023/01/12 05:13:56;;;;;;;9.85;2.50;;;8.30;99.90;;;;;;5102526;28;20275;-63
2023/01/12 05:16:22;;;;;;;11.73;2.53;;;8.30;99.90;;;;;;5106977;28;20059;-62
2023/01/12 05:18:49;;;;;;;10.05;2.08;;;8.20;99.90;;;;;;5107883;28;20119;-60
2023/01/12 05:21:16;;;;;;;9.50;2.50;;;8.20;99.90;;;;;;5107026;28;20168;-62
2023/01/12 05:23:43;;;;;;;9.48;2.42;;;8.30;99.90;;;;;;5105595;28;20044;-64
2023/01/12 05:26:09;;;;;;;8.38;2.13;;;8.20;99.90;;;;;;5078824;28;20162;-62
2023/01/12 05:28:35;;;;;;;7.43;2.22;;;8.20;99.90;;;;;;5087621;28;20652;-61
2023/01/12 05:31:09;;;;;;;11.15;2.30;;;8.20;99.90;;;;;;5093746;28;20112;-63
2023/01/12 05:33:36;;;;;;;8.50;2.13;;;8.20;99.90;;;;;;5085506;28;20047;-61
2023/01/12 05:36:04;;;;;;;7.20;1.92;;;8.20;99.90;;;;;;5087027;28;20432;-62
2023/01/12 05:38:30;;;;;;;10.00;2.28;;;8.20;99.90;;;;;;5088213;28;20120;-62
2023/01/12 05:40:59;;;;;;;10.50;2.40;;;8.10;99.90;;;;;;5107570;28;20506;-61
2023/01/12 05:46:09;;;;;;;7.30;2.47;;;8.10;99.90;;;;;;5098062;28;20096;-61
2023/01/12 05:48:34;;;;;;;8.02;1.80;;;8.10;99.90;;;;;;5105934;28;20040;-63
2023/01/12 05:51:01;;;;;;;8.02;2.38;;;8.00;99.90;;;;;;5106878;28;20125;-60
2023/01/12 05:53:27;;;;;;;8.45;1.85;;;8.00;99.90;;;;;;5105126;28;20711;-62
2023/01/12 05:55:53;;;;;;;12.38;2.65;;;8.00;99.90;;;;;;5103496;28;20741;-61
2023/01/12 05:58:18;;;;;;;8.85;2.05;;;8.00;99.90;;;;;;5085749;28;20044;-62
2023/01/12 06:00:44;;;;;;;7.57;1.95;;;8.00;99.90;;;;;;5094860;28;20055;-61
2023/01/12 06:03:09;;;;;;;6.10;1.88;;;8.00;99.90;;;;;;5085479;28;20052;-63
2023/01/12 06:05:35;;;;;;;5.75;1.67;;;8.00;99.90;;;;;;5086458;28;20044;-62
2023/01/12 06:08:01;;;;;;;10.63;2.17;;;8.00;99.90;;;;;;5083840;28;20079;-64
2023/01/12 06:10:27;;;;;;;11.10;2.00;;;8.00;99.90;;;;;;5102793;28;20267;-64
2023/01/12 06:15:37;;;;;;;5.50;2.05;;;8.00;99.90;;;;;;5095238;28;20590;-64
2023/01/12 06:18:03;;;;;;;6.80;1.80;;;8.00;99.90;;;;;;5103145;28;20050;-62
2023/01/12 06:20:28;;;;;;;11.02;2.05;;;8.10;99.90;;;;;;5106255;28;20036;-64
2023/01/12 06:22:54;;;;;;;6.88;1.73;;;8.00;99.90;;;;;;5105139;28;20093;-62
2023/01/12 06:25:20;;;;;;;5.93;1.80;;;8.10;99.90;;;;;;5100102;28;20080;-60
2023/01/12 06:27:45;;;;;;;7.32;1.70;;;8.10;99.90;;;;;;5101672;28;20044;-61
2023/01/12 06:30:11;;;;;;;9.38;1.48;;;8.20;99.90;;;;;;5102362;28;20040;-61
2023/01/12 06:32:37;;;;;;;5.45;1.80;;;8.20;99.90;;;;;;5099916;28;20043;-61
2023/01/12 06:35:03;;;;;;;7.13;1.75;;;8.30;99.90;;;;;;5105914;28;20159;-63
2023/01/12 06:37:29;;;;;;;6.35;1.40;;;8.30;99.90;;;;;;5094662;28;20534;-60
2023/01/12 06:39:55;;;;;;;8.95;1.25;;;8.30;99.90;;;;;;5085598;28;20039;-62
2023/01/12 06:42:30;;;;;;;4.00;1.30;;;8.30;99.90;;;;;;5104076;28;20071;-63
2023/01/12 06:45:02;;;;;;;2.85;1.10;;;8.30;99.90;;;;;;5093916;28;20043;-63
2023/01/12 06:47:30;;;;;;;4.47;1.25;;;8.40;99.90;;;;;;5093766;28;20080;-63
2023/01/12 06:49:56;;;;;;;5.82;1.40;;;8.40;99.90;;;;;;5102487;28;20039;-63
2023/01/12 06:52:24;;;;;;;3.65;1.10;;;8.50;99.90;;;;;;5097258;28;20039;-64
2023/01/12 06:54:50;;;;;;;5.03;1.10;;;8.50;99.90;;;;;;5086306;28;20076;-64
2023/01/12 06:57:17;;;;;;;4.10;1.20;;;8.60;99.90;;;;;;5099141;28;20064;-65
2023/01/12 06:59:42;;;;;;;4.13;1.08;;;8.60;99.90;;;;;;5101984;28;20059;-62
2023/01/12 07:02:13;;;;;;;3.13;0.95;;;8.70;99.90;;;;;;5092023;28;20398;-62
2023/01/12 07:04:39;;;;;;;3.97;1.52;;;8.70;99.90;;;;;;5084038;28;20051;-65
2023/01/12 07:07:06;;;;;;;5.65;1.10;;;8.70;99.90;;;;;;5086666;28;20502;-63
2023/01/12 07:09:32;;;;;;;3.67;1.10;;;8.80;99.90;;;;;;5094118;28;20078;-63
2023/01/12 07:11:58;;;;;;;3.30;1.00;;;8.80;99.90;;;;;;5089650;28;20078;-62
2023/01/12 07:14:23;;;;;;;3.83;1.25;;;8.80;99.90;;;;;;5103737;28;20031;-64
2023/01/12 07:16:49;;;;;;;5.70;1.38;;;8.90;99.90;;;;;;5094822;28;20800;-62
2023/01/12 07:19:14;;;;;;;3.10;1.20;;;8.90;99.90;;;;;;5100311;28;20605;-62
2023/01/12 07:21:40;;;;;;;7.78;1.48;;;8.90;99.90;;;;;;5104513;28;20039;-62
2023/01/12 07:24:06;;;;;;;3.42;1.58;;;8.90;99.90;;;;;;5101820;28;20040;-62
2023/01/12 07:26:31;;;;;;;3.22;1.00;;;9.00;99.90;;;;;;5104541;28;20505;-62
2023/01/12 07:28:57;;;;;;;4.50;1.35;;;9.00;99.90;;;;;;5099276;28;20071;-63
2023/01/12 07:31:23;;;;;;;4.53;1.50;;;9.10;99.90;;;;;;5089540;28;20028;-62
2023/01/12 07:33:52;;;;;;;5.75;1.40;;;9.10;99.90;;;;;;5105467;28;20047;-60
2023/01/12 07:36:18;;;;;;;2.80;1.05;;;9.10;99.90;;;;;;5104312;28;20074;-64
2023/01/12 07:38:44;;;;;;;3.55;1.40;;;9.10;99.90;;;;;;5104591;28;20039;-61
2023/01/12 07:42:22;;;;;;;5.75;1.52;;;9.10;99.90;;;;;;5092007;28;20093;-64
2023/01/12 07:43:55;;;;;;;5.55;1.50;;;9.20;99.90;;;;;;5084826;28;20044;-59
2023/01/12 07:46:21;;;;;;;5.00;1.67;;;9.20;99.90;;;;;;5091380;28;20031;-61
2023/01/12 07:48:47;;;;;;;6.65;1.60;;;9.20;99.90;;;;;;5103843;28;20043;-60
2023/01/12 07:51:12;;;;;;;4.93;1.40;;;9.20;99.90;;;;;;5099116;28;20680;-63
2023/01/12 07:53:38;;;;;;;5.93;1.80;;;9.20;99.90;;;;;;5104687;28;20034;-62
2023/01/12 07:56:04;;;;;;;6.28;1.73;;;9.30;99.90;;;;;;5103592;28;20498;-67
2023/01/12 07:58:32;;;;;;;9.27;1.80;;;9.30;99.90;;;;;;5098112;28;20047;-61
2023/01/12 08:00:58;;;;;;;7.72;1.80;;;9.40;99.90;;;;;;5099784;28;20065;-62
2023/01/12 08:03:24;;;;;;;10.63;1.90;;;9.40;99.90;;;;;;5100124;28;20043;-62
2023/01/12 08:05:50;;;;;;;8.50;2.13;;;9.50;99.90;;;;;;5098657;28;20062;-62
2023/01/12 08:08:15;;;;;;;12.57;2.58;;;9.50;99.90;;;;;;5102670;28;20330;-61
2023/01/12 08:10:42;;;;;;;12.93;2.55;;;9.50;99.90;;;;;;5086978;28;20035;-61
2023/01/12 08:13:08;;;;;;;13.02;2.50;;;9.60;99.90;;;;;;5100619;28;20051;-61
2023/01/12 08:15:41;;;;;;;18.73;3.90;;;9.70;99.90;;;;;;5096910;27;20221;-61
2023/01/12 08:18:12;;;;;;;23.48;3.50;;;9.80;99.90;;;;;;5103274;28;20052;-64
2023/01/12 08:20:41;;;;;;;22.08;3.10;;;9.90;99.90;;;;;;5098867;28;20036;-63
2023/01/12 08:23:22;;;;;;;24.08;4.05;;;10.00;99.90;;;;;;5082678;28;20046;-64
2023/01/12 08:25:55;;;;;;;27.55;4.75;;;10.10;99.90;;;;;;5095385;28;20383;-63
2023/01/12 08:28:26;;;;;;;27.58;4.07;;;10.10;99.90;;;;;;5104643;27;20044;-61
2023/01/12 08:30:52;;;;;;;27.33;4.40;;;10.20;99.90;;;;;;5103143;28;20046;-65
2023/01/12 08:33:18;;;;;;;24.77;4.07;;;10.20;99.90;;;;;;5102580;28;20461;-63
2023/01/12 08:35:45;;;;;;;28.98;4.50;;;10.20;99.90;;;;;;5102801;28;20071;-62
2023/01/12 08:38:14;;;;;;;29.83;5.15;;;10.20;99.90;;;;;;5103226;27;20043;-62
2023/01/12 08:46:15;;;;;;;27.45;4.50;;;10.40;99.90;;;;;;5093700;28;20132;-65
2023/01/12 08:48:40;;;;;;;29.02;5.15;;;10.40;99.90;;;;;;5065617;28;20510;-65
2023/01/12 08:51:07;;;;;;;30.58;5.05;;;10.40;99.90;;;;;;5083055;28;20040;-63
2023/01/12 08:53:33;;;;;;;29.20;4.28;;;10.40;99.90;;;;;;5083297;28;20040;-62
2023/01/12 08:55:59;;;;;;;26.55;4.22;;;10.40;99.90;;;;;;5082793;28;20515;-62
2023/01/12 08:58:25;;;;;;;22.88;3.75;;;10.50;99.90;;;;;;5089344;28;20114;-63
2023/01/12 09:00:50;;;;;;;20.85;4.75;;;10.50;99.90;;;;;;5094191;28;20051;-63
2023/01/12 09:03:16;;;;;;;24.35;3.55;;;10.50;99.90;;;;;;5103672;28;20047;-61
2023/01/12 09:05:43;;;;;;;26.95;4.32;;;10.50;99.90;;;;;;5091900;28;20044;-62
2023/01/12 09:08:08;;;;;;;26.50;4.22;;;10.60;99.90;;;;;;5082493;28;20044;-62
2023/01/12 09:10:34;;;;;;;27.85;4.35;;;10.60;99.90;;;;;;5084422;28;20032;-61
2023/01/12 09:13:00;;;;;;;23.52;4.28;;;10.60;99.90;;;;;;5083542;28;20040;-62
2023/01/12 09:15:25;;;;;;;25.83;4.50;;;10.60;99.90;;;;;;5096750;28;20038;-62
2023/01/12 09:17:52;;;;;;;25.55;5.10;;;10.60;99.90;;;;;;5085273;28;20584;-64
2023/01/12 09:20:18;;;;;;;16.65;3.78;;;10.60;99.90;;;;;;5083635;28;20593;-61
2023/01/12 09:22:44;;;;;;;33.97;5.40;;;10.60;99.90;;;;;;5080836;28;20056;-60
2023/01/12 09:25:09;;;;;;;30.05;4.35;;;10.60;99.90;;;;;;5082868;28;20043;-65
2023/01/12 09:27:35;;;;;;;22.35;4.28;;;10.70;99.90;;;;;;5083599;28;20071;-62
2023/01/12 09:30:01;;;;;;;29.20;4.57;;;10.70;99.90;;;;;;5083966;28;20542;-64
2023/01/12 09:32:26;;;;;;;24.92;4.20;;;10.70;99.90;;;;;;5088896;28;20051;-65
2023/01/12 09:34:53;;;;;;;29.00;4.07;;;10.70;99.90;;;;;;5083083;28;20135;-62
2023/01/12 09:37:19;;;;;;;32.80;4.10;;;10.70;99.90;;;;;;5064547;28;20055;-62
2023/01/12 09:39:44;;;;;;;20.30;3.97;;;10.70;99.90;;;;;;5083193;28;20779;-60
2023/01/12 09:47:57;;;;;;;20.55;3.53;;;10.80;99.90;;;;;;5086770;28;20040;-62
2023/01/12 09:50:32;;;;;;;16.52;2.95;;;10.90;99.90;;;;;;5083047;28;20499;-61
2023/01/12 09:53:00;;;;;;;26.55;4.22;;;10.90;99.90;;;;;;5084253;28;20040;-61
2023/01/12 09:55:54;;;;;;;19.05;4.13;;;10.90;99.90;;;;;;5104260;28;20062;-62
2023/01/12 09:58:33;;;;;;;18.60;3.60;;;10.90;99.90;;;;;;5106423;28;20126;-60
2023/01/12 10:01:06;;;;;;;16.40;3.03;;;10.90;99.90;;;;;;5097331;28;20052;-63
2023/01/12 10:03:37;;;;;;;25.20;4.80;;;11.00;99.90;;;;;;5086846;28;20123;-63
2023/01/12 10:06:04;;;;;;;21.88;3.30;;;11.00;99.90;;;;;;5084830;28;20417;-65
2023/01/12 10:08:38;;;;;;;25.35;3.90;;;11.10;99.90;;;;;;5086042;28;20120;-62
2023/01/12 10:11:24;;;;;;;23.95;3.92;;;11.10;99.90;;;;;;5086823;28;20651;-62
2023/01/12 10:14:08;;;;;;;23.42;3.50;;;11.10;99.90;;;;;;5087155;28;20040;-61
2023/01/12 10:16:55;;;;;;;33.85;4.57;;;11.10;99.90;;;;;;5099512;28;20044;-62
2023/01/12 10:19:24;;;;;;;18.13;3.05;;;11.10;99.90;;;;;;5085300;28;20039;-64
2023/01/12 10:21:52;;;;;;;16.88;3.35;;;11.10;99.90;;;;;;5085547;28;20040;-63
2023/01/12 10:24:20;;;;;;;18.45;3.80;;;11.10;99.90;;;;;;5084485;28;20044;-65
2023/01/12 10:26:54;;;;;;;19.25;3.67;;;11.10;99.90;;;;;;5099902;28;20043;-64
2023/01/12 10:29:20;;;;;;;24.35;3.95;;;11.20;99.90;;;;;;5105690;28;20043;-64
2023/01/12 10:31:46;;;;;;;26.52;3.60;;;11.20;99.90;;;;;;5088925;28;20110;-62
2023/01/12 10:34:11;;;;;;;27.70;4.13;;;11.20;99.90;;;;;;5085564;28;20093;-64
2023/01/12 10:36:47;;;;;;;20.10;3.33;;;11.30;99.90;;;;;;5085401;28;20048;-63
2023/01/12 10:39:32;;;;;;;19.70;3.28;;;11.30;99.90;;;;;;5084215;28;20075;-63
2023/01/12 10:45:10;;;;;;;21.05;3.55;;;11.40;99.90;;;;;;5091633;28;20078;-63
2023/01/12 10:47:35;;;;;;;15.98;2.80;;;11.40;99.90;;;;;;5092721;28;20454;-63
2023/01/12 10:50:26;;;;;;;24.52;4.50;;;11.30;99.90;;;;;;5085818;28;20071;-64
2023/01/12 10:53:15;;;;;;;16.33;2.92;;;11.20;99.90;;;;;;5082899;28;20047;-64
2023/01/12 10:55:42;;;;;;;24.33;3.75;;;11.10;99.90;;;;;;5103805;28;20039;-62
2023/01/12 10:58:26;;;;;;;16.83;2.90;;;11.10;99.90;;;;;;5106589;28;20535;-62
2023/01/12 11:00:52;;;;;;;17.35;3.05;;;11.20;99.90;;;;;;5103013;28;20067;-63
2023/01/12 11:03:44;;;;;;;24.30;3.53;;;11.20;99.90;;;;;;5085761;28;20423;-62
2023/01/12 11:06:24;;;;;;;19.88;3.55;;;11.20;99.90;;;;;;5083843;28;20136;-60
2023/01/12 11:08:50;;;;;;;24.33;3.83;;;11.10;99.90;;;;;;5084810;28;20047;-62
2023/01/12 11:11:23;;;;;;;19.02;3.03;;;11.10;99.90;;;;;;5085627;28;20036;-61
2023/01/12 11:13:56;;;;;;;16.45;2.72;;;11.20;99.90;;;;;;5085942;28;20127;-65
2023/01/12 11:16:41;;;;;;;21.02;3.22;;;11.20;99.90;;;;;;5077527;28;20039;-62
2023/01/12 11:19:17;;;;;;;27.88;4.03;;;11.30;99.90;;;;;;5104350;28;20051;-65
2023/01/12 11:21:52;;;;;;;15.63;3.15;;;11.30;99.90;;;;;;5103385;28;20035;-64
2023/01/12 11:24:51;;;;;;;19.42;3.45;;;11.30;99.90;;;;;;5096749;28;20527;-63
2023/01/12 11:27:28;;;;;;;18.40;3.38;;;11.30;99.90;;;;;;5084020;28;20493;-61
2023/01/12 11:30:02;;;;;;;22.10;3.05;;;11.40;99.90;;;;;;5086037;28;20035;-64
2023/01/12 11:32:31;;;;;;;13.93;3.03;;;11.40;99.90;;;;;;5084833;28;20278;-63
2023/01/12 11:35:03;;;;;;;19.52;2.80;;;11.50;99.90;;;;;;5084514;28;20048;-62
2023/01/12 11:37:31;;;;;;;20.27;3.17;;;11.40;99.90;;;;;;5084966;28;20645;-64
2023/01/12 11:40:07;;;;;;;20.17;3.33;;;11.50;99.90;;;;;;5083322;28;20304;-67
2023/01/12 11:45:22;;;;;;;18.05;2.83;;;11.50;99.90;;;;;;5091959;28;20118;-67
2023/01/12 11:47:57;;;;;;;18.95;3.63;;;11.60;99.90;;;;;;5090070;28;20040;-63
2023/01/12 11:50:34;;;;;;;19.85;4.07;;;11.60;99.90;;;;;;5084852;28;20043;-62
2023/01/12 11:53:03;;;;;;;19.52;3.28;;;11.70;99.90;;;;;;5082246;28;20568;-66
2023/01/12 11:56:07;;;;;;;23.52;3.63;;;11.70;99.90;;;;;;5085204;28;20042;-63
2023/01/12 11:58:45;;;;;;;15.55;3.08;;;11.80;99.90;;;;;;5100434;28;20051;-62
2023/01/12 12:01:40;;;;;;;20.67;4.63;;;11.80;99.90;;;;;;5084454;28;20055;-63
2023/01/12 12:04:30;;;;;;;21.20;3.60;;;11.90;99.90;;;;;;5104899;28;20862;-70
2023/01/12 12:07:04;;;;;;;12.98;2.80;;;11.80;99.90;;;;;;5103790;28;20048;-64
2023/01/12 12:09:56;;;;;;;19.60;3.40;;;11.80;99.90;;;;;;5103317;28;20639;-64
2023/01/12 12:12:41;;;;;;;18.17;3.33;;;11.80;99.90;;;;;;5084806;28;20695;-65
2023/01/12 12:15:26;;;;;;;18.88;3.20;;;11.80;99.90;;;;;;5092838;28;20553;-64
2023/01/12 12:18:13;;;;;;;19.23;3.95;;;11.80;99.90;;;;;;5098239;28;20043;-67
2023/01/12 12:21:13;;;;;;;17.27;3.47;;;11.80;99.90;;;;;;5102708;28;20043;-63
2023/01/12 12:23:53;;;;;;;16.52;2.92;;;11.70;99.90;;;;;;5102597;28;20039;-64
2023/01/12 12:26:55;;;;;;;18.05;2.85;;;11.70;99.90;;;;;;5101057;28;20624;-61
2023/01/12 12:29:21;;;;;;;17.60;3.03;;;11.70;99.90;;;;;;5082803;28;20047;-63
2023/01/12 12:32:00;;;;;;;16.10;3.15;;;11.70;99.90;;;;;;5091424;28;20067;-66
2023/01/12 12:34:43;;;;;;;16.20;2.95;;;11.60;99.90;;;;;;5083087;28;20048;-64
2023/01/12 12:37:28;;;;;;;20.52;3.25;;;11.60;99.90;;;;;;5083141;28;20040;-65
2023/01/12 12:40:04;;;;;;;19.10;2.65;;;11.60;99.90;;;;;;5083813;28;20109;-68
2023/01/12 12:45:43;;;;;;;17.30;2.92;;;11.60;99.90;;;;;;5092069;28;20112;-62
2023/01/12 12:48:19;;;;;;;17.58;3.72;;;11.60;99.90;;;;;;5085912;28;20044;-64
2023/01/12 12:51:06;;;;;;;21.85;3.30;;;11.60;99.90;;;;;;5083566;28;20043;-64
2023/01/12 12:53:36;;;;;;;15.85;2.97;;;11.50;99.90;;;;;;5083568;28;20055;-66
2023/01/12 12:56:08;;;;;;;17.20;3.85;;;11.50;99.90;;;;;;5102755;28;20044;-65
2023/01/12 12:59:02;;;;;;;19.08;4.32;;;11.50;99.90;;;;;;5102600;28;20078;-62
2023/01/12 13:01:28;;;;;;;18.88;3.25;;;11.50;99.90;;;;;;5087007;28;20392;-63
2023/01/12 13:04:02;;;;;;;20.08;3.00;;;11.50;99.90;;;;;;5083889;28;20051;-63
2023/01/12 13:06:42;;;;;;;20.05;3.95;;;11.50;99.90;;;;;;5083167;28;20047;-66
2023/01/12 13:09:09;;;;;;;18.90;3.03;;;11.50;99.90;;;;;;5083295;28;20053;-63
2023/01/12 13:11:52;;;;;;;20.08;3.08;;;11.50;99.90;;;;;;5082207;28;20048;-62
2023/01/12 13:14:24;;;;;;;16.53;3.17;;;11.50;99.90;;;;;;5099873;28;20039;-63
2023/01/12 13:16:52;;;;;;;23.35;3.55;;;11.50;99.90;;;;;;5096186;28;20119;-63
2023/01/12 13:19:39;;;;;;;21.10;3.40;;;11.50;99.90;;;;;;5083390;28;20135;-64
2023/01/12 13:22:40;;;;;;;25.00;3.67;;;11.40;99.90;;;;;;5082613;28;20040;-63
2023/01/12 13:25:08;;;;;;;21.58;3.40;;;11.40;99.90;;;;;;5026736;28;20048;-64
2023/01/12 13:28:01;;;;;;;23.05;3.15;;;11.40;99.90;;;;;;5089899;28;20131;-66
2023/01/12 13:30:29;;;;;;;15.65;3.42;;;11.40;99.90;;;;;;5087481;28;20067;-63
2023/01/12 13:33:16;;;;;;;20.70;4.38;;;11.40;99.90;;;;;;5102856;28;20036;-61
2023/01/12 13:35:45;;;;;;;23.77;3.97;;;11.40;99.90;;;;;;5107181;28;20039;-63
2023/01/12 13:38:31;;;;;;;26.30;4.32;;;11.40;99.90;;;;;;5107310;28;20534;-65
2023/01/12 13:41:12;;;;;;;27.15;5.78;;;11.40;99.90;;;;;;5096565;28;20131;-63
2023/01/12 13:44:00;;;;;;;23.95;4.22;;;11.40;99.90;;;;;;5087553;28;20040;-63
2023/01/12 13:46:46;;;;;;;28.35;4.53;;;11.40;99.90;;;;;;5097420;28;20054;-65